Weather History for Colby, KS

Change the Weather History Date:

Saturday, May 12, 2012

  Actual Average (KGLD) Record (KGLD)
Temperature  
Mean Temperature 45 °F 58 °F  
Max Temperature 51 °F 72 °F 99 °F (1962)
Min Temperature 39 °F 45 °F 27 °F (1953)
Degree Days  
Heating Degree Days 20 8  
Month to date heating degree days 113  
Since 1 July heating degree days 5768  
Cooling Degree Days 0 1  
Month to date cooling degree days 10  
Year to date cooling degree days 14  
Moisture  
Dew Point 46 °F    
Average Humidity 99    
Maximum Humidity 100    
Minimum Humidity 93    
Precipitation  
Precipitation 0.00 in 0.09 in 1.21 in (1975)
Month to date precipitation 0.95  
Year to date precipitation 4.48  
Snow  
Snow - 0.00 in - ()
Month to date snowfall 0.4  
Since 1 July snowfall 35.4  
Snow Depth -    
Sea Level Pressure  
Sea Level Pressure 30.36 in    
Wind  
Wind Speed 8 mph ()    
Max Wind Speed 13 mph    
Max Gust Speed -    
Visibility 10.0 miles    
Events Rain    
T = Trace of Precipitation, MM = Missing Value Source: Averaged Metar Reports

Daily Weather History Graph

Daily Weather History Graph

Search for Another Location

Airport:

Trip Planner

Search our weather history database for the weather conditions in past years. The results will help you decide how hot, cold, wet, or windy it might be!

Date:

Astronomy

May. 12, 2012 Rise Set
Actual Time 6:32 AM CDT 8:48 PM CDT
Civil Twilight 6:02 AM CDT 9:19 PM CDT
Nautical Twilight 5:25 AM CDT 9:56 PM CDT
Astronomical Twilight 4:45 AM CDT 10:37 PM CDT
Moon 2:04 AM CDT (5/12) 1:12 PM CDT (5/12)
Length of Visible Light 15h 16m
Length of Day
14h 16m
Waning Gibbous, 52% of the Moon is Illuminated
May 12
Waning Gibbous
May 12
Last Quarter
May 20
New
May 28
First Quarter
Jun 4
Full

Hourly Weather History & Observations

Time (CDT) Temp. Windchill Dew Point Humidity Pressure Visibility Wind Dir Wind Speed Gust Speed Precip Events Conditions
12:15 AM 42.8 °F 36.2 °F 41.0 °F 93% 30.32 in 10.0 mi NNE 12.7 mph - N/A   Clear
12:35 AM 42.8 °F 37.0 °F 41.0 °F 93% 30.34 in 10.0 mi North 10.4 mph - N/A   Clear
12:55 AM 42.8 °F 37.5 °F 41.0 °F 93% 30.34 in 10.0 mi NNE 9.2 mph - N/A   Clear
1:15 AM 41.0 °F 34.7 °F 41.0 °F 100% 30.34 in 10.0 mi North 10.4 mph - N/A   Clear
1:35 AM 41.0 °F 35.8 °F 41.0 °F 100% 30.33 in 10.0 mi North 8.1 mph - N/A   Clear
1:55 AM 41.0 °F 35.8 °F 41.0 °F 100% 30.34 in 10.0 mi North 8.1 mph - N/A   Clear
2:15 AM 39.2 °F 33.6 °F 39.2 °F 100% 30.33 in 10.0 mi North 8.1 mph - N/A   Clear
2:35 AM 39.2 °F 33.6 °F 39.2 °F 100% 30.34 in 10.0 mi North 8.1 mph - N/A   Clear
2:55 AM 39.2 °F 32.5 °F 39.2 °F 100% 30.32 in 10.0 mi North 10.4 mph - N/A   Clear
3:15 AM 39.2 °F 33.0 °F 39.2 °F 100% 30.32 in 10.0 mi North 9.2 mph - N/A   Mostly Cloudy
3:35 AM 41.0 °F 36.4 °F 41.0 °F 100% 30.34 in 10.0 mi NNW 6.9 mph - N/A   Overcast
3:55 AM 41.0 °F 37.1 °F 41.0 °F 100% 30.34 in 10.0 mi North 5.8 mph - N/A   Overcast
4:15 AM 41.0 °F 35.8 °F 41.0 °F 100% 30.34 in 10.0 mi North 8.1 mph - N/A   Overcast
4:35 AM 42.8 °F 38.0 °F 42.8 °F 100% 30.34 in 10.0 mi North 8.1 mph - N/A   Overcast
4:55 AM 42.8 °F 37.5 °F 42.8 °F 100% 30.34 in 10.0 mi North 9.2 mph - N/A   Overcast
5:15 AM 42.8 °F 37.5 °F 42.8 °F 100% 30.35 in 10.0 mi North 9.2 mph - N/A   Overcast
5:35 AM 42.8 °F 37.5 °F 42.8 °F 100% 30.35 in 10.0 mi NNE 9.2 mph - N/A   Overcast
6:15 AM 42.8 °F 38.0 °F 42.8 °F 100% 30.35 in 10.0 mi NNE 8.1 mph - N/A   Overcast
6:35 AM 44.6 °F 40.7 °F 42.8 °F 93% 30.36 in 10.0 mi North 6.9 mph - N/A   Overcast
6:55 AM 44.6 °F 40.2 °F 42.8 °F 93% 30.37 in 10.0 mi North 8.1 mph - N/A   Overcast
7:15 AM 44.6 °F 39.7 °F 42.8 °F 93% 30.37 in 10.0 mi NNE 9.2 mph - N/A   Overcast
7:35 AM 44.6 °F 39.2 °F 42.8 °F 93% 30.38 in 10.0 mi North 10.4 mph - N/A   Overcast
7:55 AM 42.8 °F 37.5 °F 42.8 °F 100% 30.39 in 10.0 mi NNW 9.2 mph - N/A   Drizzle
8:15 AM 42.8 °F 37.5 °F 42.8 °F 100% 30.40 in 10.0 mi NNW 9.2 mph - N/A Rain Light Rain
8:35 AM 42.8 °F 37.5 °F 42.8 °F 100% 30.40 in 10.0 mi North 9.2 mph - N/A Rain Light Rain
8:55 AM 42.8 °F 37.5 °F 42.8 °F 100% 30.41 in 10.0 mi North 9.2 mph - N/A Rain Rain
9:15 AM 42.8 °F 37.0 °F 42.8 °F 100% 30.41 in 10.0 mi North 10.4 mph - N/A Rain Light Rain
9:35 AM 42.8 °F 36.6 °F 42.8 °F 100% 30.40 in 10.0 mi North 11.5 mph - N/A Rain Rain
9:55 AM 42.8 °F 36.6 °F 42.8 °F 100% 30.41 in 10.0 mi North 11.5 mph - N/A Rain Light Rain
10:35 AM 42.8 °F 37.5 °F 42.8 °F 100% 30.40 in 10.0 mi North 9.2 mph - N/A Rain Light Rain
10:55 AM 44.6 °F 40.2 °F 44.6 °F 100% 30.40 in 10.0 mi North 8.1 mph - N/A Rain Light Rain
11:15 AM 44.6 °F 39.2 °F 44.6 °F 100% 30.41 in 10.0 mi North 10.4 mph - N/A Rain Light Rain
11:35 AM 46.4 °F 41.9 °F 46.4 °F 100% 30.40 in 10.0 mi North 9.2 mph - N/A   Overcast
11:55 AM 46.4 °F 42.4 °F 46.4 °F 100% 30.40 in 10.0 mi North 8.1 mph - N/A   Overcast
12:15 PM 46.4 °F 42.4 °F 46.4 °F 100% 30.40 in 10.0 mi NNE 8.1 mph - N/A   Overcast
12:35 PM 46.4 °F 41.9 °F 46.4 °F 100% 30.39 in 10.0 mi North 9.2 mph - N/A   Overcast
12:55 PM 46.4 °F 41.9 °F 46.4 °F 100% 30.39 in 10.0 mi NNE 9.2 mph - N/A   Overcast
1:15 PM 48.2 °F - 48.2 °F 100% 30.39 in 10.0 mi NNE 10.4 mph - N/A   Overcast
1:35 PM 48.2 °F - 48.2 °F 100% 30.39 in 10.0 mi North 9.2 mph - N/A Rain Light Rain
1:55 PM 48.2 °F - 48.2 °F 100% 30.38 in 10.0 mi North 9.2 mph - N/A Rain Light Rain
2:15 PM 48.2 °F - 48.2 °F 100% 30.38 in 10.0 mi North 8.1 mph - N/A   Overcast
2:35 PM 50.0 °F - 50.0 °F 100% 30.37 in 10.0 mi North 11.5 mph - N/A Rain Light Rain
2:55 PM 50.0 °F - 50.0 °F 100% 30.37 in 10.0 mi North 11.5 mph - N/A   Light Drizzle
3:15 PM 50.0 °F - 50.0 °F 100% 30.36 in 10.0 mi North 11.5 mph - N/A   Light Drizzle
3:35 PM 50.0 °F - 50.0 °F 100% 30.36 in 10.0 mi North 11.5 mph - N/A   Overcast
3:55 PM 50.0 °F - 50.0 °F 100% 30.36 in 10.0 mi North 10.4 mph - N/A   Overcast
4:15 PM 50.0 °F - 50.0 °F 100% 30.35 in 10.0 mi North 10.4 mph - N/A   Overcast
4:35 PM 50.0 °F - 50.0 °F 100% 30.35 in 10.0 mi North 9.2 mph - N/A   Overcast
4:55 PM 50.0 °F - 50.0 °F 100% 30.35 in 10.0 mi North 9.2 mph - N/A   Light Drizzle
5:15 PM 50.0 °F - 50.0 °F 100% 30.34 in 10.0 mi North 9.2 mph - N/A   Light Drizzle
5:35 PM 50.0 °F - 50.0 °F 100% 30.34 in 10.0 mi North 6.9 mph - N/A   Light Drizzle
5:55 PM 51.8 °F - 51.8 °F 100% 30.34 in 10.0 mi North 8.1 mph - N/A   Overcast
6:15 PM 51.8 °F - 51.8 °F 100% 30.33 in 10.0 mi North 9.2 mph - N/A   Overcast
6:35 PM 51.8 °F - 51.8 °F 100% 30.32 in 10.0 mi NNE 9.2 mph - N/A   Light Drizzle
6:55 PM 51.8 °F - 51.8 °F 100% 30.32 in 10.0 mi North 10.4 mph - N/A   Overcast
7:15 PM 51.8 °F - 51.8 °F 100% 30.32 in 10.0 mi NNE 8.1 mph - N/A   Overcast
7:35 PM 51.8 °F - 51.8 °F 100% 30.32 in 10.0 mi North 10.4 mph - N/A   Overcast
7:55 PM 50.0 °F - 50.0 °F 100% 30.32 in 10.0 mi NNE 6.9 mph - N/A   Overcast
8:15 PM 50.0 °F - 50.0 °F 100% 30.32 in 10.0 mi NNE 8.1 mph - N/A   Overcast
8:35 PM 50.0 °F - 50.0 °F 100% 30.34 in 10.0 mi North 8.1 mph - N/A   Overcast
8:55 PM 50.0 °F - 50.0 °F 100% 30.34 in 10.0 mi North 6.9 mph - N/A   Overcast
9:15 PM 50.0 °F - 50.0 °F 100% 30.34 in 10.0 mi North 5.8 mph - N/A   Overcast
9:35 PM 50.0 °F - 50.0 °F 100% 30.35 in 10.0 mi North 5.8 mph - N/A   Overcast
9:55 PM 50.0 °F - 50.0 °F 100% 30.36 in 10.0 mi North 4.6 mph - N/A   Overcast
10:15 PM 48.2 °F - 48.2 °F 100% 30.36 in 10.0 mi North 5.8 mph - N/A   Overcast
10:35 PM 48.2 °F - 48.2 °F 100% 30.36 in 10.0 mi North 5.8 mph - N/A   Overcast
10:55 PM 48.2 °F - 48.2 °F 100% 30.36 in 10.0 mi North 6.9 mph - N/A   Overcast
11:15 PM 48.2 °F - 48.2 °F 100% 30.37 in 10.0 mi NNW 5.8 mph - N/A   Overcast
11:35 PM 48.2 °F - 48.2 °F 100% 30.36 in 10.0 mi North 5.8 mph - N/A   Overcast
11:55 PM 48.2 °F - 48.2 °F 100% 30.36 in 10.0 mi North 5.8 mph - N/A   Overcast